Time;durP1;ratioP1;P1;durP2;ratioP2;P2;SDS_P1;SDS_P2;PMS_P1;PMS_P2;Temp;Humidity;BMP_temperature;BMP_pressure;BME280_temperature;BME280_humidity;BME280_pressure;Samples;Min_cycle;Max_cycle;Signal;HPM_P1;HPM_P2
2022/03/17 00:01:55;;;;;;;28.90;22.08;;;26.50;99.90;;;;;;5091802;28;20020;-61
2022/03/17 00:04:22;;;;;;;28.33;20.27;;;26.50;99.90;;;;;;5094004;28;20096;-59
2022/03/17 00:06:49;;;;;;;24.98;17.98;;;26.60;99.90;;;;;;5085236;28;20078;-59
2022/03/17 00:09:16;;;;;;;22.52;16.90;;;26.60;99.90;;;;;;5094457;28;20071;-58
2022/03/17 00:54:09;;;;;;;18.30;12.15;;;25.50;99.90;;;;;;5123474;27;20983;-56
2022/03/17 00:56:35;;;;;;;21.55;14.10;;;25.60;99.90;;;;;;5111597;28;20417;-59
2022/03/17 00:59:02;;;;;;;42.40;31.17;;;25.70;99.90;;;;;;5110881;28;20434;-57
2022/03/17 01:01:29;;;;;;;61.30;46.35;;;25.80;99.90;;;;;;5109266;28;20028;-53
2022/03/17 01:03:56;;;;;;;169.52;129.82;;;25.80;99.90;;;;;;5110941;28;20106;-54
2022/03/17 01:06:22;;;;;;;30.50;19.52;;;26.00;99.90;;;;;;5110187;28;20102;-56
2022/03/17 01:08:49;;;;;;;55.33;36.50;;;26.00;99.90;;;;;;5111344;28;20381;-54
2022/03/17 01:11:16;;;;;;;20.67;16.17;;;26.10;99.90;;;;;;5111094;28;20484;-55
2022/03/17 01:13:43;;;;;;;19.02;12.75;;;26.20;99.90;;;;;;5110668;28;20118;-56
2022/03/17 01:16:10;;;;;;;13.05;10.52;;;26.20;99.90;;;;;;5111259;28;20031;-55
2022/03/17 01:18:36;;;;;;;9.43;8.43;;;26.20;99.90;;;;;;5110945;28;20020;-58
2022/03/17 01:21:03;;;;;;;12.82;9.02;;;26.10;99.90;;;;;;5110626;28;20042;-57
2022/03/17 01:23:30;;;;;;;10.60;8.23;;;26.20;99.90;;;;;;5110917;28;20032;-57
2022/03/17 01:25:56;;;;;;;11.55;8.30;;;26.10;99.90;;;;;;5111081;28;20035;-61
2022/03/17 01:28:23;;;;;;;13.40;8.85;;;26.20;99.90;;;;;;5110679;28;20042;-57
2022/03/17 01:30:52;;;;;;;9.93;7.85;;;26.50;99.90;;;;;;5110192;28;20311;-55
2022/03/17 01:33:19;;;;;;;13.50;9.85;;;26.50;99.90;;;;;;5110510;28;20081;-56
2022/03/17 01:35:46;;;;;;;12.15;9.45;;;26.40;99.90;;;;;;5110307;28;20495;-56
2022/03/17 01:38:12;;;;;;;13.40;9.07;;;26.50;99.90;;;;;;5110350;28;20111;-56
2022/03/17 01:40:39;;;;;;;13.95;9.77;;;26.50;99.90;;;;;;5110488;28;20414;-56
2022/03/17 01:43:06;;;;;;;11.13;9.82;;;26.60;99.90;;;;;;5110427;28;20035;-55
2022/03/17 01:45:33;;;;;;;11.77;8.93;;;26.50;99.90;;;;;;5110749;28;20062;-58
2022/03/17 01:47:59;;;;;;;71.13;51.13;;;26.60;99.90;;;;;;5109776;28;20032;-58
2022/03/17 01:50:26;;;;;;;18.48;14.20;;;26.60;99.90;;;;;;5109876;28;20053;-56
2022/03/17 01:52:53;;;;;;;13.48;9.25;;;26.60;99.90;;;;;;5106747;28;20101;-56
2022/03/17 01:55:21;;;;;;;15.13;9.48;;;26.70;99.90;;;;;;5109885;28;20034;-56
2022/03/17 01:57:48;;;;;;;18.40;9.38;;;26.70;99.90;;;;;;5110422;28;20095;-56
2022/03/17 02:00:18;;;;;;;13.95;10.50;;;26.70;99.90;;;;;;5110491;28;20024;-55
2022/03/17 02:02:47;;;;;;;13.45;8.98;;;26.80;99.90;;;;;;5108251;28;20077;-58
2022/03/17 02:05:14;;;;;;;13.57;9.57;;;26.80;99.90;;;;;;5097053;28;20035;-56
2022/03/17 02:07:47;;;;;;;12.82;10.00;;;26.80;99.90;;;;;;5094961;28;20476;-57
2022/03/17 02:10:14;;;;;;;14.70;10.00;;;26.90;99.90;;;;;;5095843;28;20028;-54
2022/03/17 02:15:19;;;;;;;10.15;8.70;;;26.90;99.90;;;;;;5095163;28;20020;-55
2022/03/17 02:17:47;;;;;;;9.70;8.70;;;26.90;99.90;;;;;;5095928;28;20051;-59
2022/03/17 02:20:16;;;;;;;12.93;8.88;;;27.00;99.90;;;;;;5095815;28;20024;-55
2022/03/17 02:22:48;;;;;;;10.13;8.90;;;27.00;99.90;;;;;;5094883;28;20417;-55
2022/03/17 02:28:04;;;;;;;11.55;8.88;;;27.10;99.90;;;;;;5094872;28;20046;-57
2022/03/17 02:30:34;;;;;;;9.48;8.55;;;27.20;99.90;;;;;;5093241;28;20024;-58
2022/03/17 02:33:07;;;;;;;13.82;11.52;;;27.30;99.90;;;;;;5094673;28;20028;-55
2022/03/17 02:35:34;;;;;;;18.50;14.90;;;27.40;99.90;;;;;;5093279;28;20024;-58
2022/03/17 02:38:03;;;;;;;15.05;12.05;;;27.60;99.90;;;;;;5092981;28;20021;-57
2022/03/17 02:40:33;;;;;;;14.40;10.48;;;27.70;99.90;;;;;;5087984;28;20020;-57
2022/03/17 02:43:01;;;;;;;12.30;10.40;;;27.70;99.90;;;;;;5092600;28;20549;-57
2022/03/17 02:45:28;;;;;;;26.52;17.98;;;27.80;99.90;;;;;;5090606;28;20480;-56
2022/03/17 02:47:55;;;;;;;27.77;16.77;;;27.80;99.90;;;;;;5094387;28;20422;-56
2022/03/17 02:50:22;;;;;;;25.05;18.73;;;27.90;99.90;;;;;;5094346;28;20036;-56
2022/03/17 02:52:48;;;;;;;25.33;16.80;;;27.90;99.90;;;;;;5094144;28;20040;-57
2022/03/17 02:55:15;;;;;;;14.43;11.32;;;28.00;99.90;;;;;;5093441;28;20370;-57
2022/03/17 02:57:44;;;;;;;15.35;13.18;;;28.10;99.90;;;;;;5094210;28;20047;-58
2022/03/17 03:00:12;;;;;;;18.38;14.43;;;28.20;99.90;;;;;;5093456;28;20043;-58
2022/03/17 03:02:40;;;;;;;17.33;13.93;;;28.20;99.90;;;;;;5094922;28;20440;-57
2022/03/17 03:05:08;;;;;;;19.23;15.57;;;28.40;99.90;;;;;;5094669;28;20032;-56
2022/03/17 03:07:36;;;;;;;27.63;16.88;;;28.70;99.90;;;;;;5094774;28;20028;-59
2022/03/17 03:10:04;;;;;;;20.88;18.42;;;28.80;99.90;;;;;;5093132;28;20028;-57
2022/03/17 03:12:30;;;;;;;22.25;19.88;;;28.90;99.90;;;;;;5092106;28;20024;-66
2022/03/17 03:14:57;;;;;;;27.63;21.85;;;28.90;99.90;;;;;;5089397;28;20032;-56
2022/03/17 03:17:25;;;;;;;31.33;24.38;;;28.90;99.90;;;;;;5091564;28;20028;-56
2022/03/17 03:19:52;;;;;;;26.02;21.42;;;28.90;99.90;;;;;;5089993;28;20020;-57
2022/03/17 03:22:19;;;;;;;29.70;20.88;;;28.90;99.90;;;;;;5094514;28;20028;-57
2022/03/17 03:24:46;;;;;;;28.30;22.40;;;28.90;99.90;;;;;;5094579;28;20141;-57
2022/03/17 03:27:13;;;;;;;24.63;21.83;;;29.00;99.90;;;;;;5088472;28;20112;-60
2022/03/17 03:29:40;;;;;;;29.27;22.02;;;29.00;99.90;;;;;;5088789;28;20024;-57
2022/03/17 03:32:07;;;;;;;33.22;26.45;;;29.00;99.90;;;;;;5083612;28;20030;-58
2022/03/17 03:34:34;;;;;;;28.50;23.85;;;29.00;99.90;;;;;;5094550;28;20431;-58
2022/03/17 03:39:40;;;;;;;26.38;22.48;;;29.00;99.90;;;;;;5090919;28;20024;-56
2022/03/17 03:42:09;;;;;;;29.23;25.70;;;29.00;99.90;;;;;;5089871;28;20114;-61
2022/03/17 03:44:36;;;;;;;30.35;26.13;;;29.10;99.90;;;;;;5092616;28;20032;-60
2022/03/17 03:47:05;;;;;;;36.33;29.13;;;29.10;99.90;;;;;;5093877;28;20054;-61
2022/03/17 03:49:32;;;;;;;62.65;49.83;;;29.10;99.90;;;;;;5097028;28;20028;-62
2022/03/17 03:51:59;;;;;;;38.63;27.75;;;29.20;99.90;;;;;;5092258;28;20020;-58
2022/03/17 03:54:25;;;;;;;40.88;30.55;;;29.20;99.90;;;;;;5093621;28;20084;-65
2022/03/17 03:56:54;;;;;;;38.22;29.30;;;29.20;99.90;;;;;;5093972;28;20039;-58
2022/03/17 03:59:24;;;;;;;42.47;29.45;;;29.30;99.90;;;;;;5091551;28;20024;-62
2022/03/17 04:01:56;;;;;;;38.80;27.50;;;29.30;99.90;;;;;;5091765;28;20107;-64
2022/03/17 04:04:24;;;;;;;47.63;28.73;;;29.50;99.90;;;;;;5093577;28;20028;-59
2022/03/17 04:06:56;;;;;;;35.42;25.25;;;29.60;99.90;;;;;;5093510;28;20028;-59
2022/03/17 04:09:33;;;;;;;36.97;28.08;;;29.70;99.90;;;;;;5092346;28;20380;-57
2022/03/17 04:12:01;;;;;;;40.13;26.33;;;29.80;99.90;;;;;;5092822;28;20376;-62
2022/03/17 04:14:28;;;;;;;42.60;28.92;;;29.90;99.90;;;;;;5093437;28;20055;-60
2022/03/17 04:16:54;;;;;;;39.42;29.42;;;29.80;99.90;;;;;;5093052;28;20062;-60
2022/03/17 04:19:21;;;;;;;37.20;28.40;;;29.70;99.90;;;;;;5093405;28;20031;-62
2022/03/17 04:21:49;;;;;;;39.17;30.90;;;29.70;99.90;;;;;;5090932;28;20434;-59
2022/03/17 04:24:16;;;;;;;105.95;86.97;;;29.70;99.90;;;;;;5092053;28;20477;-58
2022/03/17 04:26:44;;;;;;;88.03;66.22;;;29.70;99.90;;;;;;5090815;28;20037;-59
2022/03/17 04:29:12;;;;;;;48.28;34.70;;;29.70;99.90;;;;;;5090967;28;20123;-59
2022/03/17 04:31:40;;;;;;;140.25;104.25;;;29.60;99.90;;;;;;5092264;28;20030;-60
2022/03/17 04:34:07;;;;;;;56.35;43.38;;;29.60;99.90;;;;;;5092042;28;20024;-59
2022/03/17 04:36:34;;;;;;;60.65;45.25;;;29.60;99.90;;;;;;5092359;28;20465;-61
2022/03/17 04:39:02;;;;;;;68.18;52.30;;;29.60;99.90;;;;;;5091231;28;20035;-62
2022/03/17 04:41:29;;;;;;;41.95;34.42;;;29.60;99.90;;;;;;5091236;28;20028;-62
2022/03/17 04:43:56;;;;;;;50.15;35.03;;;29.60;99.90;;;;;;5088632;28;20043;-59
2022/03/17 04:46:23;;;;;;;42.72;34.17;;;29.50;99.90;;;;;;5091254;28;20319;-58
2022/03/17 04:48:50;;;;;;;42.55;33.63;;;29.60;99.90;;;;;;5087975;22;20044;-59
2022/03/17 04:51:17;;;;;;;45.92;37.22;;;29.50;99.90;;;;;;5058462;28;20040;-60
2022/03/17 04:53:43;;;;;;;63.25;42.63;;;29.50;99.90;;;;;;5053877;28;20416;-62
2022/03/17 04:56:12;;;;;;;53.38;40.08;;;29.50;99.90;;;;;;5052544;28;20046;-59
2022/03/17 04:58:42;;;;;;;54.90;43.58;;;29.50;99.90;;;;;;5049851;28;20013;-59
2022/03/17 05:01:10;;;;;;;51.97;44.45;;;29.50;99.90;;;;;;5046906;28;20033;-60
2022/03/17 05:03:37;;;;;;;56.33;43.08;;;29.50;99.90;;;;;;5041267;28;20116;-61
2022/03/17 05:06:05;;;;;;;53.55;43.97;;;29.50;99.90;;;;;;5050016;28;20040;-61
2022/03/17 05:08:38;;;;;;;59.17;50.70;;;29.40;99.90;;;;;;5049432;28;20078;-61
2022/03/17 05:11:07;;;;;;;65.93;55.65;;;29.40;99.90;;;;;;5061690;28;20067;-59
2022/03/17 05:13:34;;;;;;;137.60;109.55;;;29.50;99.90;;;;;;5062208;28;20389;-62
2022/03/17 05:16:02;;;;;;;130.85;96.32;;;29.50;99.90;;;;;;5059298;28;20036;-62
2022/03/17 05:18:29;;;;;;;60.53;46.63;;;29.50;99.90;;;;;;5058669;28;20040;-63
2022/03/17 05:20:55;;;;;;;58.65;46.20;;;29.40;99.90;;;;;;5044855;28;20037;-63
2022/03/17 05:23:22;;;;;;;47.42;39.60;;;29.30;99.90;;;;;;5052871;28;20017;-62
2022/03/17 05:25:50;;;;;;;50.70;41.97;;;29.30;99.90;;;;;;5053084;28;20021;-61
2022/03/17 05:28:17;;;;;;;54.63;46.88;;;29.30;99.90;;;;;;5041302;28;20041;-63
2022/03/17 05:30:45;;;;;;;59.42;44.92;;;29.20;99.90;;;;;;5050315;28;20029;-60
2022/03/17 05:33:12;;;;;;;52.40;45.55;;;29.10;99.90;;;;;;5060652;28;20062;-61
2022/03/17 05:35:40;;;;;;;56.83;48.67;;;29.10;99.90;;;;;;5057604;28;20025;-62
2022/03/17 05:38:07;;;;;;;58.70;47.65;;;29.10;99.90;;;;;;5055101;28;20025;-61
2022/03/17 05:40:34;;;;;;;75.30;54.97;;;29.10;99.90;;;;;;5059863;28;20389;-55
2022/03/17 05:43:06;;;;;;;73.88;58.13;;;29.20;99.90;;;;;;5062031;28;20040;-56
2022/03/17 05:45:34;;;;;;;72.47;58.17;;;29.10;99.90;;;;;;5058134;28;20057;-55
2022/03/17 05:48:02;;;;;;;75.68;58.60;;;28.90;99.90;;;;;;5052161;28;20052;-61
2022/03/17 05:50:32;;;;;;;71.03;56.55;;;28.80;99.90;;;;;;5037654;28;20017;-60
2022/03/17 05:52:58;;;;;;;67.95;53.30;;;28.80;99.90;;;;;;5059299;28;20044;-55
2022/03/17 05:55:26;;;;;;;61.13;50.22;;;28.60;99.90;;;;;;5058597;28;20021;-58
2022/03/17 05:57:54;;;;;;;74.28;60.70;;;28.60;99.90;;;;;;5057104;28;20101;-57
2022/03/17 06:00:23;;;;;;;75.93;61.95;;;28.60;99.90;;;;;;5047076;28;20349;-58
2022/03/17 06:02:51;;;;;;;80.18;62.40;;;28.60;99.90;;;;;;5044702;28;20029;-57
2022/03/17 06:05:18;;;;;;;89.25;69.88;;;28.50;99.90;;;;;;5056992;28;20031;-56
2022/03/17 06:07:47;;;;;;;75.32;54.97;;;28.40;99.90;;;;;;5069667;28;20238;-59
2022/03/17 06:10:21;;;;;;;60.42;46.28;;;28.10;99.90;;;;;;5062383;28;20119;-58
2022/03/17 06:12:50;;;;;;;63.53;47.85;;;28.00;99.90;;;;;;5067499;28;20377;-54
2022/03/17 06:15:16;;;;;;;54.53;40.42;;;27.90;99.90;;;;;;5057024;28;20390;-57
2022/03/17 06:17:44;;;;;;;50.90;35.90;;;27.80;99.90;;;;;;5060431;28;20076;-55
2022/03/17 06:20:13;;;;;;;33.72;27.75;;;27.80;99.90;;;;;;5056608;28;20118;-58
2022/03/17 06:22:41;;;;;;;30.25;22.50;;;27.70;99.90;;;;;;5058967;28;20090;-60
2022/03/17 06:25:10;;;;;;;24.50;20.65;;;27.60;99.90;;;;;;5058211;28;20197;-54
2022/03/17 06:27:37;;;;;;;25.25;22.52;;;27.50;99.90;;;;;;5056027;28;20504;-55
2022/03/17 06:30:05;;;;;;;31.02;27.70;;;27.50;99.90;;;;;;5060620;28;20469;-57
2022/03/17 06:32:34;;;;;;;30.42;27.08;;;27.60;99.90;;;;;;5058588;28;20028;-63
2022/03/17 06:35:01;;;;;;;30.02;26.80;;;27.40;99.90;;;;;;5058834;28;20116;-59
2022/03/17 06:37:27;;;;;;;29.55;25.25;;;27.50;99.90;;;;;;5059525;28;21103;-56
2022/03/17 06:39:54;;;;;;;30.50;27.25;;;27.60;99.90;;;;;;5048764;28;20036;-60
2022/03/17 06:42:21;;;;;;;30.90;27.63;;;27.60;99.90;;;;;;5064293;28;20036;-59
2022/03/17 06:44:48;;;;;;;33.08;29.60;;;27.60;99.90;;;;;;5065179;28;20447;-60
2022/03/17 06:47:15;;;;;;;43.22;38.53;;;27.60;99.90;;;;;;5061389;28;20081;-59
2022/03/17 06:49:42;;;;;;;48.42;43.38;;;27.70;99.90;;;;;;5067246;28;20040;-60
2022/03/17 06:52:09;;;;;;;38.20;34.25;;;27.80;99.90;;;;;;5060518;28;20496;-55
2022/03/17 06:54:35;;;;;;;34.58;31.00;;;27.70;99.90;;;;;;5065589;28;20056;-59
2022/03/17 06:57:02;;;;;;;28.05;24.92;;;27.70;99.90;;;;;;5063445;28;20028;-58
2022/03/17 06:59:29;;;;;;;17.40;14.23;;;27.70;99.90;;;;;;5065920;28;20032;-56
2022/03/17 07:01:55;;;;;;;13.27;11.10;;;27.50;99.90;;;;;;5062081;28;20095;-58
2022/03/17 07:04:22;;;;;;;12.82;11.23;;;27.30;99.90;;;;;;5064412;28;20362;-58
2022/03/17 07:06:49;;;;;;;10.85;9.68;;;27.30;99.90;;;;;;5061714;28;20025;-56
2022/03/17 07:09:16;;;;;;;16.02;9.02;;;27.10;99.90;;;;;;5053626;28;20026;-58
2022/03/17 07:11:44;;;;;;;10.52;9.50;;;27.10;99.90;;;;;;5061221;28;20052;-57
2022/03/17 07:14:11;;;;;;;10.15;9.15;;;27.10;99.90;;;;;;5065485;28;20033;-60
2022/03/17 07:16:39;;;;;;;9.45;8.43;;;27.00;99.90;;;;;;5070976;28;20025;-60
2022/03/17 07:19:07;;;;;;;11.88;9.07;;;27.00;99.90;;;;;;5057533;28;20021;-59
2022/03/17 07:21:34;;;;;;;11.85;9.32;;;27.00;99.90;;;;;;5066416;28;20087;-57
2022/03/17 07:24:01;;;;;;;10.10;8.35;;;27.00;99.90;;;;;;5061053;28;20358;-59
2022/03/17 07:26:28;;;;;;;13.60;10.20;;;27.00;99.90;;;;;;5057221;28;20029;-56
2022/03/17 07:28:56;;;;;;;12.57;10.18;;;27.10;99.90;;;;;;5059042;28;20039;-57
2022/03/17 07:31:27;;;;;;;11.77;8.80;;;27.10;99.90;;;;;;5054741;28;20029;-58
2022/03/17 07:33:53;;;;;;;10.20;9.05;;;27.10;99.90;;;;;;5054404;28;20112;-57
2022/03/17 07:36:21;;;;;;;12.80;11.48;;;27.20;99.90;;;;;;5054523;28;20040;-55
2022/03/17 07:38:48;;;;;;;10.02;9.00;;;27.20;99.90;;;;;;5054609;28;20060;-57
2022/03/17 07:41:15;;;;;;;8.88;7.68;;;27.20;99.90;;;;;;5057900;28;20017;-55
2022/03/17 07:43:43;;;;;;;11.30;8.20;;;27.20;99.90;;;;;;5063671;28;20469;-61
2022/03/17 07:46:11;;;;;;;10.05;8.25;;;27.20;99.90;;;;;;5060153;28;20154;-55
2022/03/17 07:48:38;;;;;;;14.32;10.65;;;27.30;99.90;;;;;;5043407;28;20198;-57
2022/03/17 07:51:06;;;;;;;14.82;11.18;;;27.40;99.90;;;;;;5048154;28;20041;-55
2022/03/17 07:53:32;;;;;;;15.82;10.48;;;27.30;99.90;;;;;;5048373;28;20037;-61
2022/03/17 07:55:59;;;;;;;13.15;9.55;;;27.40;99.90;;;;;;5051297;28;20074;-59
2022/03/17 07:58:26;;;;;;;18.60;9.15;;;27.40;99.90;;;;;;5052966;28;20023;-56
2022/03/17 08:00:54;;;;;;;13.88;9.23;;;27.30;99.90;;;;;;5050274;28;20075;-58
2022/03/17 08:03:21;;;;;;;14.68;11.55;;;27.30;99.90;;;;;;5052952;28;20373;-56
2022/03/17 08:05:49;;;;;;;18.73;13.93;;;27.40;99.90;;;;;;5049064;28;20037;-57
2022/03/17 08:08:17;;;;;;;19.77;14.48;;;27.30;99.90;;;;;;5060650;28;20032;-56
2022/03/17 08:10:44;;;;;;;19.67;14.40;;;27.30;99.90;;;;;;5057056;28;20036;-60
2022/03/17 08:13:11;;;;;;;18.65;15.05;;;27.30;99.90;;;;;;5060246;28;20033;-59
2022/03/17 08:15:40;;;;;;;19.65;14.93;;;27.30;99.90;;;;;;5061749;28;20017;-59
2022/03/17 08:18:07;;;;;;;23.77;14.60;;;27.30;99.90;;;;;;5060193;28;20431;-58
2022/03/17 08:20:38;;;;;;;18.70;13.77;;;27.30;99.90;;;;;;5056292;28;20122;-57
2022/03/17 08:23:05;;;;;;;20.90;13.80;;;27.30;99.90;;;;;;5058413;28;20032;-58
2022/03/17 08:25:32;;;;;;;12.55;11.10;;;27.30;99.90;;;;;;5056871;28;20121;-56
2022/03/17 08:28:02;;;;;;;17.80;12.60;;;27.30;99.90;;;;;;5061371;28;20025;-59
2022/03/17 08:30:30;;;;;;;15.70;13.23;;;27.20;99.90;;;;;;5057919;28;20450;-59
2022/03/17 08:32:57;;;;;;;15.95;14.32;;;27.20;99.90;;;;;;5055615;28;20045;-54
2022/03/17 08:35:24;;;;;;;21.20;14.60;;;27.30;99.90;;;;;;5064167;28;20112;-55
2022/03/17 08:37:51;;;;;;;21.40;16.90;;;27.30;99.90;;;;;;5057554;28;20025;-60
2022/03/17 08:40:18;;;;;;;26.25;19.27;;;27.30;99.90;;;;;;5063153;28;20088;-55
2022/03/17 08:42:45;;;;;;;26.35;16.52;;;27.30;99.90;;;;;;5062659;28;20025;-57
2022/03/17 08:50:28;;;;;;;28.50;16.00;;;27.40;99.90;;;;;;5061704;28;20382;-61
2022/03/17 08:52:55;;;;;;;30.77;15.88;;;27.50;99.90;;;;;;5058218;28;20043;-60
2022/03/17 08:55:21;;;;;;;28.08;16.17;;;27.50;99.90;;;;;;5057605;28;20035;-57
2022/03/17 08:57:49;;;;;;;31.50;15.98;;;27.50;99.90;;;;;;5061155;28;20439;-59
2022/03/17 09:00:15;;;;;;;22.55;15.60;;;27.60;99.90;;;;;;5057514;28;20655;-56
2022/03/17 09:02:44;;;;;;;24.13;15.85;;;27.60;99.90;;;;;;5057760;28;20023;-60
2022/03/17 09:05:11;;;;;;;34.10;17.13;;;27.60;99.90;;;;;;5055461;28;20053;-57
2022/03/17 09:07:39;;;;;;;28.95;16.27;;;27.70;99.90;;;;;;5057848;28;20410;-58
2022/03/17 09:10:06;;;;;;;24.02;14.07;;;27.70;99.90;;;;;;5066271;28;20060;-61
2022/03/17 09:12:33;;;;;;;23.70;14.93;;;27.70;99.90;;;;;;5062374;28;20091;-61
2022/03/17 09:15:00;;;;;;;29.17;14.20;;;27.70;99.90;;;;;;5056747;28;20037;-58
2022/03/17 09:17:27;;;;;;;34.22;16.20;;;27.60;99.90;;;;;;5058853;28;20020;-56
2022/03/17 09:19:54;;;;;;;24.23;15.48;;;27.60;99.90;;;;;;5068122;28;20067;-58
2022/03/17 09:22:21;;;;;;;23.35;16.58;;;27.70;99.90;;;;;;5066844;28;20021;-60
2022/03/17 09:24:48;;;;;;;22.50;15.70;;;27.70;99.90;;;;;;5061308;28;20040;-57
2022/03/17 09:27:16;;;;;;;25.48;17.30;;;27.70;99.90;;;;;;5065297;28;20431;-57
2022/03/17 09:29:43;;;;;;;31.33;16.95;;;27.80;99.90;;;;;;5068320;28;20100;-57
2022/03/17 09:32:09;;;;;;;24.95;17.38;;;27.80;99.90;;;;;;5061648;28;20037;-57
2022/03/17 09:34:37;;;;;;;19.33;16.33;;;27.80;99.90;;;;;;5064962;28;20032;-59
2022/03/17 09:37:04;;;;;;;21.90;16.40;;;27.80;99.90;;;;;;5067453;28;20035;-56
2022/03/17 09:39:44;;;;;;;21.08;16.10;;;27.80;99.90;;;;;;5064190;28;20095;-58
2022/03/17 09:42:11;;;;;;;25.55;18.05;;;27.90;99.90;;;;;;5057645;28;20036;-60
2022/03/17 09:44:37;;;;;;;34.47;24.50;;;27.90;99.90;;;;;;5060357;28;20078;-59
2022/03/17 09:47:07;;;;;;;35.60;28.20;;;27.90;99.90;;;;;;5066136;28;20024;-60
2022/03/17 09:49:36;;;;;;;49.45;33.53;;;27.90;99.90;;;;;;5066910;28;20076;-55
2022/03/17 09:52:11;;;;;;;71.35;37.38;;;27.80;99.90;;;;;;5066092;28;20470;-59
2022/03/17 09:54:38;;;;;;;82.05;39.58;;;27.80;99.90;;;;;;5058741;28;20020;-58
2022/03/17 09:57:05;;;;;;;56.17;30.10;;;27.80;99.90;;;;;;5064008;28;20035;-59
2022/03/17 09:59:32;;;;;;;49.35;28.80;;;27.90;99.90;;;;;;5065310;28;20053;-59
2022/03/17 10:02:00;;;;;;;43.70;27.95;;;27.90;99.90;;;;;;5064249;28;20029;-59
2022/03/17 10:04:32;;;;;;;46.97;30.73;;;27.90;99.90;;;;;;5065354;28;20075;-58
2022/03/17 10:07:02;;;;;;;;;;;27.90;99.90;;;;;;5064263;28;20060;-59
2022/03/17 10:09:29;;;;;;;49.33;33.75;;;27.80;99.90;;;;;;5059987;28;19909;-56
2022/03/17 10:12:01;;;;;;;40.38;28.85;;;27.80;99.90;;;;;;5052374;28;20039;-60
2022/03/17 10:14:36;;;;;;;41.50;27.45;;;27.80;99.90;;;;;;5046709;28;20025;-56
2022/03/17 10:17:06;;;;;;;44.42;31.50;;;27.80;99.90;;;;;;5047109;28;20389;-60
2022/03/17 10:19:34;;;;;;;43.42;33.47;;;27.80;99.90;;;;;;5051364;28;20043;-56
2022/03/17 10:22:14;;;;;;;56.92;35.78;;;27.80;99.90;;;;;;5045679;28;20033;-60
2022/03/17 10:24:58;;;;;;;48.92;31.90;;;27.80;99.90;;;;;;5050325;28;20027;-58
2022/03/17 10:27:33;;;;;;;48.10;29.83;;;27.80;99.90;;;;;;5046996;28;20053;-58
2022/03/17 10:30:06;;;;;;;46.50;34.28;;;27.80;99.90;;;;;;5049530;28;20033;-60
2022/03/17 10:32:33;;;;;;;157.93;119.13;;;27.90;99.90;;;;;;5049413;28;20494;-60
2022/03/17 10:35:00;;;;;;;139.48;111.55;;;27.90;99.90;;;;;;5053502;28;20033;-57
2022/03/17 10:37:30;;;;;;;62.28;45.63;;;28.00;99.90;;;;;;5053696;28;20040;-62
2022/03/17 10:40:08;;;;;;;45.97;33.70;;;28.00;99.90;;;;;;5047099;28;20033;-61
2022/03/17 10:42:35;;;;;;;78.75;58.97;;;28.00;99.90;;;;;;5047403;28;20025;-58
2022/03/17 10:45:05;;;;;;;60.42;39.53;;;28.10;99.90;;;;;;5064246;28;20424;-62
2022/03/17 10:47:40;;;;;;;69.93;42.47;;;28.00;99.90;;;;;;5053517;28;20082;-60
2022/03/17 10:50:12;;;;;;;65.90;41.25;;;28.00;99.90;;;;;;5048960;28;20036;-59
2022/03/17 10:52:48;;;;;;;63.95;41.30;;;28.00;99.90;;;;;;5048596;28;20033;-60
2022/03/17 10:55:18;;;;;;;60.00;41.25;;;28.10;99.90;;;;;;5048681;28;20033;-61
2022/03/17 10:57:45;;;;;;;66.32;45.97;;;28.00;99.90;;;;;;5046306;28;20045;-59
2022/03/17 11:00:24;;;;;;;65.38;45.47;;;28.00;99.90;;;;;;5048191;28;20030;-59
2022/03/17 11:02:53;;;;;;;68.72;43.13;;;28.00;99.90;;;;;;5056961;28;20058;-56
2022/03/17 11:05:20;;;;;;;117.22;90.78;;;27.90;99.90;;;;;;5050509;28;20029;-57
2022/03/17 11:07:47;;;;;;;97.97;70.32;;;27.90;99.90;;;;;;5048784;28;20370;-55
2022/03/17 11:10:16;;;;;;;110.65;76.15;;;27.90;99.90;;;;;;5050162;28;20070;-59
2022/03/17 11:12:43;;;;;;;93.57;64.70;;;27.90;99.90;;;;;;5050864;28;20052;-59
2022/03/17 11:15:10;;;;;;;101.63;62.67;;;27.90;99.90;;;;;;5053526;28;20107;-57
2022/03/17 11:17:37;;;;;;;162.75;115.15;;;27.90;99.90;;;;;;5053714;28;20111;-58
2022/03/17 11:20:07;;;;;;;109.35;78.40;;;27.90;99.90;;;;;;5048537;28;20036;-57
2022/03/17 11:22:34;;;;;;;93.22;60.78;;;27.90;99.90;;;;;;5057574;28;20531;-57
2022/03/17 11:25:19;;;;;;;88.82;59.20;;;27.90;99.90;;;;;;5052716;28;20036;-56
2022/03/17 11:27:47;;;;;;;101.32;70.68;;;27.90;99.90;;;;;;5061242;28;20024;-60
2022/03/17 11:30:16;;;;;;;137.65;87.18;;;27.90;99.90;;;;;;5059464;28;20033;-58
2022/03/17 11:32:54;;;;;;;176.48;103.75;;;27.90;99.90;;;;;;5060213;28;20152;-54
2022/03/17 11:35:28;;;;;;;131.65;84.68;;;27.80;99.90;;;;;;5060482;28;20034;-58
2022/03/17 11:38:16;;;;;;;171.20;114.78;;;27.80;99.90;;;;;;5061474;28;20074;-56
2022/03/17 11:41:07;;;;;;;226.32;161.40;;;27.80;99.90;;;;;;5061539;28;20029;-61
2022/03/17 11:43:46;;;;;;;154.45;104.30;;;27.70;99.90;;;;;;5041836;28;20049;-56
2022/03/17 11:46:14;;;;;;;137.15;90.15;;;27.60;99.90;;;;;;5046781;28;20033;-60
2022/03/17 11:48:42;;;;;;;130.77;89.13;;;27.60;99.90;;;;;;5040271;28;20045;-58
2022/03/17 11:51:11;;;;;;;130.93;91.85;;;27.70;99.90;;;;;;5052154;28;20064;-60
2022/03/17 11:53:58;;;;;;;141.55;94.57;;;27.70;99.90;;;;;;5049801;28;20086;-61
2022/03/17 11:56:42;;;;;;;136.65;95.78;;;27.70;99.90;;;;;;5047458;28;20057;-58
2022/03/17 11:59:16;;;;;;;136.70;97.57;;;27.60;99.90;;;;;;5045830;28;20033;-63
2022/03/17 12:01:46;;;;;;;135.25;101.28;;;27.50;99.90;;;;;;5045639;28;20021;-60
2022/03/17 12:04:21;;;;;;;145.23;106.38;;;27.50;99.90;;;;;;5039017;28;20034;-56
2022/03/17 12:06:54;;;;;;;175.95;132.88;;;27.50;99.90;;;;;;5039046;28;20167;-56
2022/03/17 12:09:23;;;;;;;;;;;27.50;99.90;;;;;;5054905;28;20029;-56
2022/03/17 12:11:51;;;;;;;168.57;131.13;;;27.40;99.90;;;;;;5051712;28;20360;-59
2022/03/17 12:14:21;;;;;;;166.63;126.35;;;27.50;99.90;;;;;;5049620;28;20029;-57
2022/03/17 12:16:52;;;;;;;171.18;130.32;;;27.60;99.90;;;;;;5053287;28;20017;-58
2022/03/17 12:19:40;;;;;;;157.65;123.65;;;27.50;99.90;;;;;;5053913;28;20397;-58
2022/03/17 12:22:08;;;;;;;157.75;126.10;;;27.50;99.90;;;;;;5053344;28;20078;-62
2022/03/17 12:24:39;;;;;;;161.18;123.65;;;27.50;99.90;;;;;;5053239;28;20024;-58
2022/03/17 12:27:15;;;;;;;162.20;122.80;;;27.60;99.90;;;;;;5053270;28;20029;-57
2022/03/17 12:29:43;;;;;;;150.00;116.40;;;27.60;99.90;;;;;;5053229;28;20590;-60
2022/03/17 12:32:10;;;;;;;155.98;115.43;;;27.60;99.90;;;;;;5053643;28;20040;-55
2022/03/17 12:34:39;;;;;;;147.02;108.63;;;27.60;99.90;;;;;;5053619;28;20021;-59
2022/03/17 12:37:08;;;;;;;149.52;111.63;;;27.50;99.90;;;;;;5053934;28;20060;-59
2022/03/17 12:39:35;;;;;;;142.05;106.35;;;27.60;99.90;;;;;;5053632;28;20028;-59
2022/03/17 12:42:17;;;;;;;148.80;113.75;;;27.60;99.90;;;;;;5053515;28;20362;-60
2022/03/17 12:44:48;;;;;;;148.70;112.43;;;27.60;99.90;;;;;;5053662;28;20025;-57
2022/03/17 12:47:15;;;;;;;158.03;116.43;;;27.60;99.90;;;;;;5049547;28;20074;-60
2022/03/17 12:49:42;;;;;;;151.32;113.30;;;27.70;99.90;;;;;;5052888;28;20061;-59
2022/03/17 12:52:20;;;;;;;142.48;112.70;;;27.70;99.90;;;;;;5053384;28;20025;-59
2022/03/17 12:54:48;;;;;;;148.40;113.07;;;27.70;99.90;;;;;;5053481;28;20049;-58
2022/03/17 12:57:15;;;;;;;148.25;111.55;;;27.70;99.90;;;;;;5053353;28;20029;-58
2022/03/17 12:59:41;;;;;;;148.68;114.70;;;27.70;99.90;;;;;;5053476;28;20032;-58
2022/03/17 13:02:08;;;;;;;177.98;134.77;;;27.70;99.90;;;;;;5053059;28;20025;-59
2022/03/17 13:04:39;;;;;;;149.85;113.13;;;27.70;99.90;;;;;;5053531;28;20029;-58
2022/03/17 13:07:11;;;;;;;150.90;120.15;;;27.70;99.90;;;;;;5033462;28;20150;-56
2022/03/17 13:09:41;;;;;;;146.63;118.93;;;27.70;99.90;;;;;;5033566;28;20025;-56
2022/03/17 13:14:52;;;;;;;158.38;120.85;;;27.70;99.90;;;;;;5046231;28;20466;-57
2022/03/17 13:17:32;;;;;;;188.13;151.80;;;27.70;99.90;;;;;;5064717;28;20108;-58
2022/03/17 13:19:59;;;;;;;276.75;214.07;;;27.70;99.90;;;;;;5061172;28;20048;-61
2022/03/17 13:22:29;;;;;;;152.45;121.07;;;27.70;99.90;;;;;;5058462;28;20033;-56
2022/03/17 13:25:03;;;;;;;147.63;118.10;;;27.70;99.90;;;;;;5064232;28;20040;-60
2022/03/17 13:27:30;;;;;;;164.73;127.63;;;27.60;99.90;;;;;;5063288;28;20428;-59
2022/03/17 13:29:58;;;;;;;157.50;122.10;;;27.70;99.90;;;;;;5061915;28;20029;-61
2022/03/17 13:32:26;;;;;;;151.02;119.72;;;27.60;99.90;;;;;;5062941;28;20017;-61